sensor_id;sensor_type;location;lat;lon;timestamp;pressure;altitude;pressure_sealevel;temperature;humidity
59419;BME280;45224;50.904;6.038;2023-02-14T00:01:16;101628.75;;;6.19;74.94
59419;BME280;45224;50.904;6.038;2023-02-14T00:02:47;101638.72;;;6.13;75.42
59419;BME280;45224;50.904;6.038;2023-02-14T00:04:18;101640.28;;;6.09;75.81
59419;BME280;45224;50.904;6.038;2023-02-14T00:05:49;101637.72;;;6.09;75.32
59419;BME280;45224;50.904;6.038;2023-02-14T00:07:19;101639.19;;;6.04;75.83
59419;BME280;45224;50.904;6.038;2023-02-14T00:08:49;101637.34;;;6.01;75.90
59419;BME280;45224;50.904;6.038;2023-02-14T00:10:23;101626.66;;;5.94;75.96
59419;BME280;45224;50.904;6.038;2023-02-14T00:11:53;101631.72;;;5.92;76.13
59419;BME280;45224;50.904;6.038;2023-02-14T00:13:24;101637.81;;;5.94;76.06
59419;BME280;45224;50.904;6.038;2023-02-14T00:14:57;101627.34;;;5.90;76.19
59419;BME280;45224;50.904;6.038;2023-02-14T00:16:46;101633.41;;;5.92;76.20
59419;BME280;45224;50.904;6.038;2023-02-14T00:18:16;101635.03;;;5.90;76.27
59419;BME280;45224;50.904;6.038;2023-02-14T00:19:47;101633.34;;;5.90;76.16
59419;BME280;45224;50.904;6.038;2023-02-14T00:21:17;101634.13;;;5.89;75.99
59419;BME280;45224;50.904;6.038;2023-02-14T00:22:48;101621.06;;;5.84;76.27
59419;BME280;45224;50.904;6.038;2023-02-14T00:24:21;101633.97;;;5.86;76.23
59419;BME280;45224;50.904;6.038;2023-02-14T00:25:52;101630.31;;;5.81;75.99
59419;BME280;45224;50.904;6.038;2023-02-14T00:27:23;101630.16;;;5.78;76.29
59419;BME280;45224;50.904;6.038;2023-02-14T00:28:53;101627.38;;;5.73;76.24
59419;BME280;45224;50.904;6.038;2023-02-14T00:30:24;101633.41;;;5.74;76.25
59419;BME280;45224;50.904;6.038;2023-02-14T00:31:54;101628.13;;;5.71;76.37
59419;BME280;45224;50.904;6.038;2023-02-14T00:33:27;101633.97;;;5.68;76.64
59419;BME280;45224;50.904;6.038;2023-02-14T00:34:58;101639.09;;;5.68;75.98
59419;BME280;45224;50.904;6.038;2023-02-14T00:36:29;101627.97;;;5.67;76.21
59419;BME280;45224;50.904;6.038;2023-02-14T00:37:59;101632.22;;;5.67;76.18
59419;BME280;45224;50.904;6.038;2023-02-14T00:39:30;101632.94;;;5.64;75.98
59419;BME280;45224;50.904;6.038;2023-02-14T00:41:01;101632.94;;;5.64;75.88
59419;BME280;45224;50.904;6.038;2023-02-14T00:42:32;101632.78;;;5.61;76.14
59419;BME280;45224;50.904;6.038;2023-02-14T00:44:03;101626.53;;;5.56;76.09
59419;BME280;45224;50.904;6.038;2023-02-14T00:45:34;101625.59;;;5.54;75.87
59419;BME280;45224;50.904;6.038;2023-02-14T00:47:05;101629.13;;;5.56;75.99
59419;BME280;45224;50.904;6.038;2023-02-14T00:48:35;101629.81;;;5.54;76.41
59419;BME280;45224;50.904;6.038;2023-02-14T00:50:06;101629.81;;;5.54;76.36
59419;BME280;45224;50.904;6.038;2023-02-14T00:51:36;101624.50;;;5.49;76.41
59419;BME280;45224;50.904;6.038;2023-02-14T00:53:07;101625.38;;;5.49;76.47
59419;BME280;45224;50.904;6.038;2023-02-14T00:54:37;101623.50;;;5.47;76.54
59419;BME280;45224;50.904;6.038;2023-02-14T00:56:08;101613.09;;;5.44;76.54
59419;BME280;45224;50.904;6.038;2023-02-14T00:57:39;101617.50;;;5.46;76.84
59419;BME280;45224;50.904;6.038;2023-02-14T00:59:10;101607.69;;;5.38;76.73
59419;BME280;45224;50.904;6.038;2023-02-14T01:00:40;101619.69;;;5.39;77.00
59419;BME280;45224;50.904;6.038;2023-02-14T01:02:11;101616.00;;;5.34;77.25
59419;BME280;45224;50.904;6.038;2023-02-14T01:03:41;101615.16;;;5.33;77.29
59419;BME280;45224;50.904;6.038;2023-02-14T01:05:11;101618.50;;;5.32;77.28
59419;BME280;45224;50.904;6.038;2023-02-14T01:06:42;101621.00;;;5.30;77.05
59419;BME280;45224;50.904;6.038;2023-02-14T01:08:13;101613.97;;;5.26;76.99
59419;BME280;45224;50.904;6.038;2023-02-14T01:09:44;101608.75;;;5.25;77.49
59419;BME280;45224;50.904;6.038;2023-02-14T01:11:16;101612.81;;;5.21;76.96
59419;BME280;45224;50.904;6.038;2023-02-14T01:12:49;101613.81;;;5.23;76.99
59419;BME280;45224;50.904;6.038;2023-02-14T01:14:19;101611.31;;;5.25;77.08
59419;BME280;45224;50.904;6.038;2023-02-14T01:15:50;101609.22;;;5.18;77.88
59419;BME280;45224;50.904;6.038;2023-02-14T01:17:21;101619.72;;;5.22;78.23
59419;BME280;45224;50.904;6.038;2023-02-14T01:18:52;101606.75;;;5.19;78.59
59419;BME280;45224;50.904;6.038;2023-02-14T01:20:22;101604.97;;;5.18;78.67
59419;BME280;45224;50.904;6.038;2023-02-14T01:21:53;101608.66;;;5.23;79.70
59419;BME280;45224;50.904;6.038;2023-02-14T01:23:26;101595.69;;;5.20;79.90
59419;BME280;45224;50.904;6.038;2023-02-14T01:24:56;101595.78;;;5.22;79.69
59419;BME280;45224;50.904;6.038;2023-02-14T01:26:28;101600.31;;;5.27;80.23
59419;BME280;45224;50.904;6.038;2023-02-14T01:27:58;101603.81;;;5.29;80.40
59419;BME280;45224;50.904;6.038;2023-02-14T01:29:29;101599.69;;;5.32;79.93
59419;BME280;45224;50.904;6.038;2023-02-14T01:31:21;101598.84;;;5.33;80.01
59419;BME280;45224;50.904;6.038;2023-02-14T01:32:51;101606.69;;;5.36;80.03
59419;BME280;45224;50.904;6.038;2023-02-14T01:34:22;101598.28;;;5.38;79.59
59419;BME280;45224;50.904;6.038;2023-02-14T01:35:52;101600.00;;;5.38;79.82
59419;BME280;45224;50.904;6.038;2023-02-14T01:37:23;101603.59;;;5.41;79.83
59419;BME280;45224;50.904;6.038;2023-02-14T01:39:00;101607.19;;;5.45;79.57
59419;BME280;45224;50.904;6.038;2023-02-14T01:40:31;101600.34;;;5.45;79.48
59419;BME280;45224;50.904;6.038;2023-02-14T01:42:01;101603.91;;;5.47;79.23
59419;BME280;45224;50.904;6.038;2023-02-14T01:45:47;101601.25;;;5.46;78.37
59419;BME280;45224;50.904;6.038;2023-02-14T01:47:18;101603.91;;;5.47;78.64
59419;BME280;45224;50.904;6.038;2023-02-14T01:48:53;101594.28;;;5.43;78.31
59419;BME280;45224;50.904;6.038;2023-02-14T01:50:30;101601.25;;;5.46;78.07
59419;BME280;45224;50.904;6.038;2023-02-14T01:52:20;101601.09;;;5.43;78.12
59419;BME280;45224;50.904;6.038;2023-02-14T01:53:52;101600.03;;;5.39;78.13
59419;BME280;45224;50.904;6.038;2023-02-14T01:55:27;101600.78;;;5.37;77.71
59419;BME280;45224;50.904;6.038;2023-02-14T01:57:02;101598.84;;;5.33;77.94
59419;BME280;45224;50.904;6.038;2023-02-14T01:58:37;101598.69;;;5.29;77.77
59419;BME280;45224;50.904;6.038;2023-02-14T02:00:10;101595.19;;;5.27;77.93
59419;BME280;45224;50.904;6.038;2023-02-14T02:02:00;101594.72;;;5.18;78.10
59419;BME280;45224;50.904;6.038;2023-02-14T02:03:46;101585.59;;;5.07;78.38
59419;BME280;45224;50.904;6.038;2023-02-14T02:05:18;101591.69;;;5.09;78.28
59419;BME280;45224;50.904;6.038;2023-02-14T02:06:56;101595.13;;;5.09;77.74
59419;BME280;45224;50.904;6.038;2023-02-14T02:08:33;101600.19;;;5.08;77.99
59419;BME280;45224;50.904;6.038;2023-02-14T02:10:06;101593.13;;;5.04;77.87
59419;BME280;45224;50.904;6.038;2023-02-14T02:11:37;101598.25;;;5.04;77.87
59419;BME280;45224;50.904;6.038;2023-02-14T02:13:15;101593.94;;;5.03;77.67
59419;BME280;45224;50.904;6.038;2023-02-14T02:14:46;101594.66;;;5.00;77.70
59419;BME280;45224;50.904;6.038;2023-02-14T02:18:17;101594.91;;;4.88;78.32
59419;BME280;45224;50.904;6.038;2023-02-14T02:23:43;101594.25;;;4.76;78.73
59419;BME280;45224;50.904;6.038;2023-02-14T02:27:43;101595.72;;;4.71;78.67
59419;BME280;45224;50.904;6.038;2023-02-14T02:36:34;101588.34;;;4.61;79.14
59419;BME280;45224;50.904;6.038;2023-02-14T02:38:38;101588.19;;;4.57;79.75
59419;BME280;45224;50.904;6.038;2023-02-14T02:41:09;101582.19;;;4.57;79.65
59419;BME280;45224;50.904;6.038;2023-02-14T02:44:02;101582.56;;;4.65;79.62
59419;BME280;45224;50.904;6.038;2023-02-14T02:48:30;101573.22;;;4.65;80.21
59419;BME280;45224;50.904;6.038;2023-02-14T02:49:50;101572.47;;;4.68;80.29
59419;BME280;45224;50.904;6.038;2023-02-14T02:51:51;101575.22;;;4.71;80.43
59419;BME280;45224;50.904;6.038;2023-02-14T02:53:47;101579.47;;;4.70;80.59
59419;BME280;45224;50.904;6.038;2023-02-14T02:55:57;101583.06;;;4.74;80.30
59419;BME280;45224;50.904;6.038;2023-02-14T02:57:50;101572.66;;;4.71;80.67
59419;BME280;45224;50.904;6.038;2023-02-14T02:59:26;101571.84;;;4.72;80.35
59419;BME280;45224;50.904;6.038;2023-02-14T03:01:02;101578.72;;;4.73;80.39
59419;BME280;45224;50.904;6.038;2023-02-14T03:02:40;101573.59;;;4.73;80.39
59419;BME280;45224;50.904;6.038;2023-02-14T03:04:44;101573.44;;;4.70;81.25
59419;BME280;45224;50.904;6.038;2023-02-14T03:06:22;101577.69;;;4.69;81.29
59419;BME280;45224;50.904;6.038;2023-02-14T03:07:53;101571.84;;;4.72;81.01
59419;BME280;45224;50.904;6.038;2023-02-14T03:11:00;101576.97;;;4.72;81.49
59419;BME280;45224;50.904;6.038;2023-02-14T03:14:18;101570.88;;;4.70;81.20
59419;BME280;45224;50.904;6.038;2023-02-14T03:19:40;101569.84;;;4.66;81.50
59419;BME280;45224;50.904;6.038;2023-02-14T03:21:41;101575.88;;;4.67;81.77
59419;BME280;45224;50.904;6.038;2023-02-14T03:23:20;101574.88;;;4.65;81.61
59419;BME280;45224;50.904;6.038;2023-02-14T03:25:04;101572.22;;;4.63;81.80
59419;BME280;45224;50.904;6.038;2023-02-14T03:26:48;101573.75;;;4.60;82.06
59419;BME280;45224;50.904;6.038;2023-02-14T03:28:33;101569.44;;;4.58;81.65
59419;BME280;45224;50.904;6.038;2023-02-14T03:33:32;101565.91;;;4.56;81.65
59419;BME280;45224;50.904;6.038;2023-02-14T03:35:18;101569.28;;;4.55;81.70
59419;BME280;45224;50.904;6.038;2023-02-14T03:37:04;101577.59;;;4.51;82.37
59419;BME280;45224;50.904;6.038;2023-02-14T03:38:54;101571.34;;;4.46;81.93
59419;BME280;45224;50.904;6.038;2023-02-14T03:40:31;101577.78;;;4.54;81.61
59419;BME280;45224;50.904;6.038;2023-02-14T03:42:18;101581.28;;;4.56;82.01
59419;BME280;45224;50.904;6.038;2023-02-14T03:44:02;101576.91;;;4.54;82.12
59419;BME280;45224;50.904;6.038;2023-02-14T03:45:39;101577.78;;;4.54;81.79
59419;BME280;45224;50.904;6.038;2023-02-14T03:47:15;101580.25;;;4.53;82.27
59419;BME280;45224;50.904;6.038;2023-02-14T03:48:49;101576.81;;;4.52;82.52
59419;BME280;45224;50.904;6.038;2023-02-14T03:50:22;101576.72;;;4.51;82.48
59419;BME280;45224;50.904;6.038;2023-02-14T03:51:56;101583.59;;;4.52;82.21
59419;BME280;45224;50.904;6.038;2023-02-14T03:53:30;101585.91;;;4.47;82.47
59419;BME280;45224;50.904;6.038;2023-02-14T03:55:04;101576.47;;;4.46;82.60
59419;BME280;45224;50.904;6.038;2023-02-14T03:56:45;101585.59;;;4.41;83.20
59419;BME280;45224;50.904;6.038;2023-02-14T03:58:26;101576.78;;;4.36;83.83
59419;BME280;45224;50.904;6.038;2023-02-14T03:59:58;101579.41;;;4.37;83.59
59419;BME280;45224;50.904;6.038;2023-02-14T04:02:16;101574.22;;;4.36;84.75
59419;BME280;45224;50.904;6.038;2023-02-14T04:03:45;101575.03;;;4.35;83.88
59419;BME280;45224;50.904;6.038;2023-02-14T04:05:22;101577.41;;;4.32;84.52
59419;BME280;45224;50.904;6.038;2023-02-14T04:06:53;101582.53;;;4.32;84.64
59419;BME280;45224;50.904;6.038;2023-02-14T04:08:26;101576.47;;;4.30;85.47
59419;BME280;45224;50.904;6.038;2023-02-14T04:09:57;101585.72;;;4.28;85.32
59419;BME280;45224;50.904;6.038;2023-02-14T04:11:27;101579.81;;;4.29;85.22
59419;BME280;45224;50.904;6.038;2023-02-14T04:12:58;101575.38;;;4.26;85.43
59419;BME280;45224;50.904;6.038;2023-02-14T04:14:28;101562.38;;;4.22;85.35
59419;BME280;45224;50.904;6.038;2023-02-14T04:15:59;101566.50;;;4.19;85.40
59419;BME280;45224;50.904;6.038;2023-02-14T04:17:29;101579.91;;;4.30;84.97
59419;BME280;45224;50.904;6.038;2023-02-14T04:19:19;101579.97;;;4.32;84.62
59419;BME280;45224;50.904;6.038;2023-02-14T04:20:52;101575.66;;;4.31;84.97
59419;BME280;45224;50.904;6.038;2023-02-14T04:22:22;101573.91;;;4.30;84.96
59419;BME280;45224;50.904;6.038;2023-02-14T04:23:53;101578.53;;;4.37;84.90
59419;BME280;45224;50.904;6.038;2023-02-14T04:25:23;101579.41;;;4.37;83.99
59419;BME280;45224;50.904;6.038;2023-02-14T04:26:54;101578.53;;;4.37;84.01
59419;BME280;45224;50.904;6.038;2023-02-14T04:28:39;101587.00;;;4.36;84.85
59419;BME280;45224;50.904;6.038;2023-02-14T04:30:10;101582.63;;;4.33;84.74
59419;BME280;45224;50.904;6.038;2023-02-14T04:31:41;101579.19;;;4.33;84.50
59419;BME280;45224;50.904;6.038;2023-02-14T04:33:12;101574.69;;;4.29;84.49
59419;BME280;45224;50.904;6.038;2023-02-14T04:34:43;101577.25;;;4.29;84.16
59419;BME280;45224;50.904;6.038;2023-02-14T04:36:13;101577.09;;;4.26;84.43
59419;BME280;45224;50.904;6.038;2023-02-14T04:37:44;101573.72;;;4.27;84.22
59419;BME280;45224;50.904;6.038;2023-02-14T04:39:14;101576.47;;;4.30;84.06
59419;BME280;45224;50.904;6.038;2023-02-14T04:40:48;101568.69;;;4.28;84.83
59419;BME280;45224;50.904;6.038;2023-02-14T04:42:18;101565.31;;;4.29;84.43
59419;BME280;45224;50.904;6.038;2023-02-14T04:43:48;101564.28;;;4.26;84.19
59419;BME280;45224;50.904;6.038;2023-02-14T04:45:19;101572.13;;;4.29;84.22
59419;BME280;45224;50.904;6.038;2023-02-14T04:46:50;101564.44;;;4.29;83.30
59419;BME280;45224;50.904;6.038;2023-02-14T04:48:20;101567.97;;;4.31;83.13
59419;BME280;45224;50.904;6.038;2023-02-14T04:49:51;101564.44;;;4.29;83.63
59419;BME280;45224;50.904;6.038;2023-02-14T04:51:21;101569.56;;;4.29;83.35
59419;BME280;45224;50.904;6.038;2023-02-14T04:52:52;101569.56;;;4.29;83.43
59419;BME280;45224;50.904;6.038;2023-02-14T04:54:24;101566.06;;;4.27;83.38
59419;BME280;45224;50.904;6.038;2023-02-14T04:55:54;101552.84;;;4.19;83.31
59419;BME280;45224;50.904;6.038;2023-02-14T04:57:25;101556.91;;;4.15;83.06
59419;BME280;45224;50.904;6.038;2023-02-14T04:58:55;101559.31;;;4.12;82.91
59419;BME280;45224;50.904;6.038;2023-02-14T05:00:26;101554.78;;;4.08;82.43
59419;BME280;45224;50.904;6.038;2023-02-14T05:01:56;101552.88;;;4.04;83.20
59419;BME280;45224;50.904;6.038;2023-02-14T05:03:27;101555.19;;;3.99;82.60
59419;BME280;45224;50.904;6.038;2023-02-14T05:04:57;101552.38;;;3.95;83.70
59419;BME280;45224;50.904;6.038;2023-02-14T05:06:28;101548.84;;;3.93;83.17
59419;BME280;45224;50.904;6.038;2023-02-14T05:07:58;101549.38;;;3.87;83.53
59419;BME280;45224;50.904;6.038;2023-02-14T05:09:29;101549.13;;;3.82;83.56
59419;BME280;45224;50.904;6.038;2023-02-14T05:10:59;101544.66;;;3.78;83.29
59419;BME280;45224;50.904;6.038;2023-02-14T05:12:30;101548.16;;;3.80;82.56
59419;BME280;45224;50.904;6.038;2023-02-14T05:14:00;101544.66;;;3.78;83.28
59419;BME280;45224;50.904;6.038;2023-02-14T05:15:31;101547.66;;;3.71;82.75
59419;BME280;45224;50.904;6.038;2023-02-14T05:17:01;101541.50;;;3.68;82.54
59419;BME280;45224;50.904;6.038;2023-02-14T05:18:32;101546.34;;;3.63;82.39
59419;BME280;45224;50.904;6.038;2023-02-14T05:20:06;101542.66;;;3.58;82.53
59419;BME280;45224;50.904;6.038;2023-02-14T05:21:37;101532.88;;;3.51;82.51
59419;BME280;45224;50.904;6.038;2023-02-14T05:23:07;101547.31;;;3.50;82.92
59419;BME280;45224;50.904;6.038;2023-02-14T05:24:42;101542.94;;;3.47;82.72
59419;BME280;45224;50.904;6.038;2023-02-14T05:26:13;101534.13;;;3.42;83.29
59419;BME280;45224;50.904;6.038;2023-02-14T05:27:43;101533.84;;;3.38;83.13
59419;BME280;45224;50.904;6.038;2023-02-14T05:29:14;101535.19;;;3.31;83.10
59419;BME280;45224;50.904;6.038;2023-02-14T05:30:44;101530.78;;;3.28;83.64
59419;BME280;45224;50.904;6.038;2023-02-14T05:32:15;101536.56;;;3.26;83.41
59419;BME280;45224;50.904;6.038;2023-02-14T05:33:45;101527.59;;;3.18;83.26
59419;BME280;45224;50.904;6.038;2023-02-14T05:35:16;101533.50;;;3.17;83.42
59419;BME280;45224;50.904;6.038;2023-02-14T05:36:47;101531.72;;;3.16;83.59
59419;BME280;45224;50.904;6.038;2023-02-14T05:38:18;101539.41;;;3.16;83.88
59419;BME280;45224;50.904;6.038;2023-02-14T05:39:48;101532.44;;;3.13;84.50
59419;BME280;45224;50.904;6.038;2023-02-14T05:41:19;101537.63;;;3.15;84.05
59419;BME280;45224;50.904;6.038;2023-02-14T05:42:51;101533.25;;;3.12;84.10
59419;BME280;45224;50.904;6.038;2023-02-14T05:44:21;101529.00;;;3.13;84.16
59419;BME280;45224;50.904;6.038;2023-02-14T05:45:52;101527.22;;;3.11;84.29
59419;BME280;45224;50.904;6.038;2023-02-14T05:47:23;101533.34;;;3.14;84.39
59419;BME280;45224;50.904;6.038;2023-02-14T05:48:54;101529.88;;;3.13;84.30
59419;BME280;45224;50.904;6.038;2023-02-14T05:50:24;101524.56;;;3.10;84.39
59419;BME280;45224;50.904;6.038;2023-02-14T05:51:57;101521.78;;;3.05;84.66
59419;BME280;45224;50.904;6.038;2023-02-14T05:53:27;101532.34;;;3.11;84.78
59419;BME280;45224;50.904;6.038;2023-02-14T05:54:58;101526.91;;;3.05;85.47
59419;BME280;45224;50.904;6.038;2023-02-14T05:56:28;101523.16;;;3.00;85.29
59419;BME280;45224;50.904;6.038;2023-02-14T05:57:59;101533.38;;;3.00;85.72
59419;BME280;45224;50.904;6.038;2023-02-14T05:59:29;101532.41;;;2.98;86.51
59419;BME280;45224;50.904;6.038;2023-02-14T06:01:00;101532.16;;;2.93;87.01
59419;BME280;45224;50.904;6.038;2023-02-14T06:02:30;101534.09;;;2.98;86.42
59419;BME280;45224;50.904;6.038;2023-02-14T06:04:01;101531.63;;;2.99;86.23
59419;BME280;45224;50.904;6.038;2023-02-14T06:05:31;101536.84;;;3.01;86.50
59419;BME280;45224;50.904;6.038;2023-02-14T06:07:02;101526.44;;;2.98;86.21
59419;BME280;45224;50.904;6.038;2023-02-14T06:08:32;101533.47;;;3.02;87.01
59419;BME280;45224;50.904;6.038;2023-02-14T06:10:03;101532.59;;;3.01;86.18
59419;BME280;45224;50.904;6.038;2023-02-14T06:11:33;101528.53;;;3.05;86.28
59419;BME280;45224;50.904;6.038;2023-02-14T06:13:04;101534.13;;;3.13;85.48
59419;BME280;45224;50.904;6.038;2023-02-14T06:14:37;101532.50;;;3.15;85.34
59419;BME280;45224;50.904;6.038;2023-02-14T06:16:10;101537.81;;;3.18;85.09
59419;BME280;45224;50.904;6.038;2023-02-14T06:17:41;101535.44;;;3.21;84.98
59419;BME280;45224;50.904;6.038;2023-02-14T06:19:11;101534.47;;;3.19;85.24
59419;BME280;45224;50.904;6.038;2023-02-14T06:20:41;101527.59;;;3.18;84.61
59419;BME280;45224;50.904;6.038;2023-02-14T06:22:12;101530.22;;;3.19;84.59
59419;BME280;45224;50.904;6.038;2023-02-14T06:23:42;101535.44;;;3.21;84.62
59419;BME280;45224;50.904;6.038;2023-02-14T06:25:13;101534.66;;;3.22;84.16
59419;BME280;45224;50.904;6.038;2023-02-14T06:26:43;101539.75;;;3.22;83.88
59419;BME280;45224;50.904;6.038;2023-02-14T06:28:14;101535.25;;;3.18;84.81
59419;BME280;45224;50.904;6.038;2023-02-14T06:29:44;101541.50;;;3.23;84.12
59419;BME280;45224;50.904;6.038;2023-02-14T06:31:15;101528.22;;;3.14;84.75
59419;BME280;45224;50.904;6.038;2023-02-14T06:32:46;101542.06;;;3.17;85.29
59419;BME280;45224;50.904;6.038;2023-02-14T06:34:17;101537.63;;;3.15;87.99
59419;BME280;45224;50.904;6.038;2023-02-14T06:35:47;101534.28;;;3.16;87.56
59419;BME280;45224;50.904;6.038;2023-02-14T06:37:18;101544.88;;;3.22;86.29
59419;BME280;45224;50.904;6.038;2023-02-14T06:38:49;101538.06;;;3.22;86.28
59419;BME280;45224;50.904;6.038;2023-02-14T06:40:19;101539.03;;;3.24;nan
59419;BME280;45224;50.904;6.038;2023-02-14T06:41:50;101546.81;;;3.26;85.82
59419;BME280;45224;50.904;6.038;2023-02-14T06:43:21;101546.81;;;3.26;85.57
59419;BME280;45224;50.904;6.038;2023-02-14T06:44:51;101535.69;;;3.25;85.07
59419;BME280;45224;50.904;6.038;2023-02-14T06:46:22;101542.84;;;3.31;84.68
59419;BME280;45224;50.904;6.038;2023-02-14T06:47:53;101536.16;;;3.33;84.47
59419;BME280;45224;50.904;6.038;2023-02-14T06:49:23;101533.50;;;3.32;84.72
59419;BME280;45224;50.904;6.038;2023-02-14T06:50:54;101534.38;;;3.32;84.56
59419;BME280;45224;50.904;6.038;2023-02-14T06:52:25;101533.59;;;3.33;84.35
59419;BME280;45224;50.904;6.038;2023-02-14T06:53:55;101532.47;;;3.28;84.90
59419;BME280;45224;50.904;6.038;2023-02-14T06:55:26;101536.84;;;3.31;84.54
59419;BME280;45224;50.904;6.038;2023-02-14T06:56:57;101536.75;;;3.29;84.54
59419;BME280;45224;50.904;6.038;2023-02-14T06:58:27;101534.84;;;3.25;84.63
59419;BME280;45224;50.904;6.038;2023-02-14T06:59:58;101532.00;;;3.20;84.35
59419;BME280;45224;50.904;6.038;2023-02-14T07:01:28;101538.94;;;3.23;84.62
59419;BME280;45224;50.904;6.038;2023-02-14T07:02:59;101537.81;;;3.18;84.59
59419;BME280;45224;50.904;6.038;2023-02-14T07:04:29;101537.44;;;3.11;84.13
59419;BME280;45224;50.904;6.038;2023-02-14T07:06:00;101528.47;;;3.03;84.63
59419;BME280;45224;50.904;6.038;2023-02-14T07:07:30;101540.63;;;3.07;84.17
59419;BME280;45224;50.904;6.038;2023-02-14T07:09:00;101540.28;;;3.01;84.12
59419;BME280;45224;50.904;6.038;2023-02-14T07:10:32;101548.72;;;3.00;84.43
59419;BME280;45224;50.904;6.038;2023-02-14T07:12:03;101551.19;;;2.99;84.59
59419;BME280;45224;50.904;6.038;2023-02-14T07:13:33;101553.69;;;2.97;85.12
59419;BME280;45224;50.904;6.038;2023-02-14T07:15:09;101553.50;;;2.94;85.01
59419;BME280;45224;50.904;6.038;2023-02-14T07:16:39;101550.13;;;2.95;85.42
59419;BME280;45224;50.904;6.038;2023-02-14T07:18:10;101546.97;;;2.99;84.90
59419;BME280;45224;50.904;6.038;2023-02-14T07:19:40;101540.09;;;2.98;84.88
59419;BME280;45224;50.904;6.038;2023-02-14T07:21:11;101551.38;;;3.02;84.85
59419;BME280;45224;50.904;6.038;2023-02-14T07:22:41;101549.81;;;3.04;85.37
59419;BME280;45224;50.904;6.038;2023-02-14T07:24:12;101545.75;;;3.07;85.58
59419;BME280;45224;50.904;6.038;2023-02-14T07:25:42;101549.25;;;3.09;85.31
59419;BME280;45224;50.904;6.038;2023-02-14T07:27:13;101546.09;;;3.14;85.06
59419;BME280;45224;50.904;6.038;2023-02-14T07:28:44;101547.25;;;3.19;85.16
59419;BME280;45224;50.904;6.038;2023-02-14T07:30:15;101542.41;;;3.23;85.06
59419;BME280;45224;50.904;6.038;2023-02-14T07:31:46;101550.34;;;3.28;85.17
59419;BME280;45224;50.904;6.038;2023-02-14T07:33:16;101543.91;;;3.35;85.53
59419;BME280;45224;50.904;6.038;2023-02-14T07:34:46;101550.69;;;3.49;85.48
59419;BME280;45224;50.904;6.038;2023-02-14T07:36:17;101537.34;;;3.55;85.44
59419;BME280;45224;50.904;6.038;2023-02-14T07:37:50;101542.69;;;3.74;85.70
59419;BME280;45224;50.904;6.038;2023-02-14T07:39:21;101549.47;;;3.89;84.97
59419;BME280;45224;50.904;6.038;2023-02-14T07:40:52;101549.97;;;3.98;84.57
59419;BME280;45224;50.904;6.038;2023-02-14T07:42:23;101552.41;;;4.11;84.57
59419;BME280;45224;50.904;6.038;2023-02-14T07:43:53;101549.41;;;4.18;83.95
59419;BME280;45224;50.904;6.038;2023-02-14T07:45:24;101543.63;;;4.23;84.49
59419;BME280;45224;50.904;6.038;2023-02-14T07:46:55;101554.38;;;4.32;84.58
59419;BME280;45224;50.904;6.038;2023-02-14T07:48:25;101556.28;;;4.36;85.75
59419;BME280;45224;50.904;6.038;2023-02-14T07:49:56;101551.16;;;4.36;86.53
59419;BME280;45224;50.904;6.038;2023-02-14T07:51:26;101541.25;;;4.42;86.78
59419;BME280;45224;50.904;6.038;2023-02-14T07:52:57;101539.97;;;4.50;86.43
59419;BME280;45224;50.904;6.038;2023-02-14T07:54:27;101549.34;;;4.66;86.50
59419;BME280;45224;50.904;6.038;2023-02-14T07:55:58;101551.53;;;4.75;85.73
59419;BME280;45224;50.904;6.038;2023-02-14T07:57:28;101549.41;;;4.84;85.90
59419;BME280;45224;50.904;6.038;2023-02-14T07:58:59;101551.66;;;4.94;85.65
59419;BME280;45224;50.904;6.038;2023-02-14T08:00:29;101549.41;;;5.01;85.34
59419;BME280;45224;50.904;6.038;2023-02-14T08:02:00;101548.13;;;5.09;85.53
59419;BME280;45224;50.904;6.038;2023-02-14T08:03:30;101558.03;;;5.19;85.63
59419;BME280;45224;50.904;6.038;2023-02-14T08:05:00;101561.22;;;5.32;85.32
59419;BME280;45224;50.904;6.038;2023-02-14T08:06:31;101558.59;;;5.48;85.12
59419;BME280;45224;50.904;6.038;2023-02-14T08:08:02;101554.06;;;5.60;84.69
59419;BME280;45224;50.904;6.038;2023-02-14T08:09:32;101554.47;;;5.70;84.36
59419;BME280;45224;50.904;6.038;2023-02-14T08:11:03;101551.72;;;5.83;83.73
59419;BME280;45224;50.904;6.038;2023-02-14T08:12:33;101552.28;;;5.95;83.66
59419;BME280;45224;50.904;6.038;2023-02-14T08:14:22;101564.09;;;6.10;83.06
59419;BME280;45224;50.904;6.038;2023-02-14T08:15:53;101553.66;;;6.25;83.01
59419;BME280;45224;50.904;6.038;2023-02-14T08:17:35;101552.53;;;6.37;83.17
59419;BME280;45224;50.904;6.038;2023-02-14T08:19:06;101548.69;;;6.47;82.79
59419;BME280;45224;50.904;6.038;2023-02-14T08:20:36;101554.31;;;6.58;82.78
59419;BME280;45224;50.904;6.038;2023-02-14T08:22:07;101551.00;;;6.61;82.60
59419;BME280;45224;50.904;6.038;2023-02-14T08:23:37;101541.88;;;6.67;81.24
59419;BME280;45224;50.904;6.038;2023-02-14T08:25:08;101551.25;;;6.67;80.99
59419;BME280;45224;50.904;6.038;2023-02-14T08:26:38;101557.81;;;6.80;81.34
59419;BME280;45224;50.904;6.038;2023-02-14T08:28:09;101552.81;;;6.83;80.58
59419;BME280;45224;50.904;6.038;2023-02-14T08:29:39;101549.50;;;6.85;80.25
59419;BME280;45224;50.904;6.038;2023-02-14T08:31:10;101544.34;;;6.85;80.06
59419;BME280;45224;50.904;6.038;2023-02-14T08:32:41;101542.94;;;6.92;80.21
59419;BME280;45224;50.904;6.038;2023-02-14T08:34:12;101539.69;;;6.96;80.30
59419;BME280;45224;50.904;6.038;2023-02-14T08:35:43;101552.97;;;7.07;79.68
59419;BME280;45224;50.904;6.038;2023-02-14T08:37:13;101546.91;;;7.26;80.56
59419;BME280;45224;50.904;6.038;2023-02-14T08:38:44;101538.06;;;7.40;80.62
59419;BME280;45224;50.904;6.038;2023-02-14T08:40:16;101539.19;;;7.68;80.69
59419;BME280;45224;50.904;6.038;2023-02-14T08:41:47;101543.69;;;7.95;80.51
59419;BME280;45224;50.904;6.038;2023-02-14T08:43:17;101535.22;;;8.21;79.97
59419;BME280;45224;50.904;6.038;2023-02-14T08:44:48;101548.56;;;8.56;79.59
59419;BME280;45224;50.904;6.038;2023-02-14T08:46:19;101537.41;;;8.82;78.55